Time;durP1;ratioP1;P1;durP2;ratioP2;P2;SDS_P1;SDS_P2;PMS_P1;PMS_P2;Temp;Humidity;BMP_temperature;BMP_pressure;BME280_temperature;BME280_humidity;BME280_pressure;Samples;Min_cycle;Max_cycle;Signal;HPM_P1;HPM_P2
2023/02/14 00:01:10;;;;;;;18.67;10.32;;;;;;;6.81;57.50;103414.22;4804407;29;124057;-70
2023/02/14 00:03:38;;;;;;;16.98;9.68;;;;;;;6.77;57.45;103415.91;4804048;29;124286;-70
2023/02/14 00:06:06;;;;;;;16.80;9.25;;;;;;;6.74;57.38;103415.91;4804758;29;114382;-71
2023/02/14 00:08:35;;;;;;;15.75;9.15;;;;;;;6.72;57.34;103422.88;4804444;29;113556;-70
2023/02/14 00:11:04;;;;;;;17.15;9.68;;;;;;;6.70;57.50;103423.72;4804821;29;124341;-70
2023/02/14 00:13:31;;;;;;;15.68;9.35;;;;;;;6.68;57.56;103421.06;4805311;29;124035;-69
2023/02/14 00:15:58;;;;;;;14.38;8.73;;;;;;;6.66;57.15;103417.53;4804449;29;114946;-69
2023/02/14 00:21:12;;;;;;;19.00;9.70;;;;;;;6.64;57.63;103408.72;4818903;29;123374;-70
2023/02/14 00:23:39;;;;;;;16.73;9.35;;;;;;;6.63;57.77;103412.25;4803097;29;124324;-70
2023/02/14 00:26:12;;;;;;;16.90;10.13;;;;;;;6.61;57.78;103408.69;4799968;29;115106;-70
2023/02/14 00:28:41;;;;;;;18.45;9.88;;;;;;;6.62;58.01;103410.47;4800961;29;116610;-70
2023/02/14 00:31:09;;;;;;;14.13;9.57;;;;;;;6.61;57.83;103406.03;4801218;29;125524;-69
2023/02/14 00:33:36;;;;;;;16.13;9.63;;;;;;;6.60;57.96;103401.66;4803153;29;124091;-70
2023/02/14 00:36:06;;;;;;;14.50;8.98;;;;;;;6.59;57.58;103402.50;4799924;29;114461;-70
2023/02/14 00:38:33;;;;;;;15.93;8.93;;;;;;;6.56;57.70;103397.22;4803872;29;114383;-70
2023/02/14 00:41:02;;;;;;;14.88;8.60;;;;;;;6.53;57.83;103405.06;4801497;29;124187;-70
2023/02/14 00:43:29;;;;;;;17.27;9.13;;;;;;;6.51;57.64;103396.28;4816205;29;124476;-70
2023/02/14 00:45:57;;;;;;;15.60;9.10;;;;;;;6.48;57.52;103396.22;4817703;29;114088;-69
2023/02/14 00:48:25;;;;;;;18.60;10.27;;;;;;;6.47;57.79;103405.00;4804725;29;114181;-70
2023/02/14 00:50:52;;;;;;;17.30;9.43;;;;;;;6.43;57.88;103394.41;4818674;29;123369;-70
2023/02/14 00:53:19;;;;;;;16.90;9.77;;;;;;;6.42;57.81;103402.28;4802228;29;123964;-70
2023/02/14 00:55:46;;;;;;;17.33;10.48;;;;;;;6.39;57.51;103403.16;4804532;29;113299;-70
2023/02/14 00:58:14;;;;;;;19.75;11.90;;;;;;;6.34;57.57;103399.56;4803691;29;113385;-70
2023/02/14 01:00:42;;;;;;;16.27;10.38;;;;;;;6.31;57.99;103394.28;4805420;29;98410;-70
2023/02/14 01:03:10;;;;;;;16.02;10.05;;;;;;;6.27;57.64;103396.81;4817483;29;122969;-70
2023/02/14 01:05:37;;;;;;;14.70;9.40;;;;;;;6.23;57.67;103406.41;4800143;29;115097;-70
2023/02/14 01:08:04;;;;;;;12.95;8.85;;;;;;;6.20;58.00;103406.38;4818893;29;113874;-70
2023/02/14 01:10:32;;;;;;;14.43;9.02;;;;;;;6.17;58.08;103406.34;4801596;29;124732;-70
2023/02/14 01:12:59;;;;;;;13.63;8.75;;;;;;;6.14;57.63;103411.53;4821641;29;122764;-70
2023/02/14 01:15:28;;;;;;;12.63;8.02;;;;;;;6.11;58.06;103409.75;4817024;29;114493;-70
2023/02/14 01:17:57;;;;;;;11.90;7.93;;;;;;;6.09;58.03;103407.97;4815554;29;114328;-70
2023/02/14 01:20:26;;;;;;;13.20;8.02;;;;;;;6.06;58.01;103402.66;4820202;29;123020;-74
2023/02/14 01:22:53;;;;;;;12.93;7.75;;;;;;;6.03;58.24;103399.13;4814980;29;123324;-69
2023/02/14 01:25:20;;;;;;;12.15;7.82;;;;;;;6.01;57.98;103406.09;4817859;29;113902;-70
2023/02/14 01:27:47;;;;;;;14.13;8.23;;;;;;;5.99;57.97;103407.84;4801541;29;114025;-70
2023/02/14 01:30:15;;;;;;;14.65;8.50;;;;;;;5.97;58.16;103401.66;4816411;29;123483;-69
2023/02/14 01:32:42;;;;;;;14.85;8.70;;;;;;;5.94;58.05;103403.34;4813695;29;123205;-69
2023/02/14 01:35:10;;;;;;;16.85;9.38;;;;;;;5.92;58.10;103411.19;4819090;29;113147;-70
2023/02/14 01:37:38;;;;;;;14.38;9.05;;;;;;;5.91;58.12;103409.41;4815748;29;112792;-69
2023/02/14 01:40:07;;;;;;;15.90;8.90;;;;;;;5.89;58.23;103405.88;4798663;29;124987;-69
2023/02/14 01:42:35;;;;;;;12.93;8.75;;;;;;;5.87;57.96;103402.34;4801259;29;125487;-69
2023/02/14 01:45:25;;;;;;;14.85;9.07;;;;;;;5.85;57.93;103398.78;4804342;29;114476;-69
2023/02/14 01:47:55;;;;;;;13.90;8.15;;;;;;;5.84;58.33;103408.44;4823743;29;113021;-69
2023/02/14 01:50:29;;;;;;;14.00;8.07;;;;;;;5.82;57.98;103409.25;4816608;29;123633;-70
2023/02/14 01:53:05;;;;;;;14.40;7.82;;;;;;;5.82;58.08;103398.72;4802624;29;124083;-70
2023/02/14 01:55:41;;;;;;;14.00;8.30;;;;;;;5.81;58.07;103394.34;4804489;29;113842;-70
2023/02/14 01:58:12;;;;;;;13.27;7.90;;;;;;;5.79;57.94;103393.44;4820448;29;113469;-70
2023/02/14 02:00:57;;;;;;;13.00;8.27;;;;;;;5.78;58.16;103396.91;4817312;29;123660;-69
2023/02/14 02:03:33;;;;;;;;;;;;;;;5.78;58.00;103396.91;4799593;29;123937;-69
2023/02/14 02:06:13;;;;;;;12.65;7.45;;;;;;;5.76;58.05;103388.13;4835923;28;114616;-70
2023/02/14 02:08:51;;;;;;;14.68;8.00;;;;;;;5.74;58.22;103395.09;4821982;29;113828;-70
2023/02/14 02:11:18;;;;;;;13.15;8.10;;;;;;;5.73;58.20;103393.34;4801398;29;125123;-69
2023/02/14 02:13:46;;;;;;;15.93;9.02;;;;;;;5.72;58.43;103387.19;4816940;29;123038;-71
2023/02/14 02:16:36;;;;;;;15.75;9.40;;;;;;;5.71;58.51;103379.28;4803714;29;114226;-70
2023/02/14 02:19:15;;;;;;;15.32;8.82;;;;;;;5.72;58.19;103370.53;4803073;29;113974;-71
2023/02/14 02:21:58;;;;;;;12.48;8.00;;;;;;;5.71;58.18;103380.19;4821101;29;125094;-70
2023/02/14 02:24:47;;;;;;;13.25;8.07;;;;;;;5.70;58.49;103377.53;4808245;29;123747;-71
2023/02/14 02:27:36;;;;;;;13.80;8.18;;;;;;;5.69;58.62;103381.00;4805261;29;115018;-70
2023/02/14 02:30:15;;;;;;;16.05;8.32;;;;;;;5.67;58.54;103370.47;4804379;29;113716;-70
2023/02/14 02:33:10;;;;;;;14.35;7.72;;;;;;;5.65;58.30;103365.19;4808944;29;123392;-70
2023/02/14 02:35:48;;;;;;;14.35;8.00;;;;;;;5.66;58.22;103372.19;4817669;29;122811;-70
2023/02/14 02:38:43;;;;;;;16.08;9.13;;;;;;;5.64;58.36;103368.66;4815364;29;113555;-71
2023/02/14 02:41:20;;;;;;;15.18;9.25;;;;;;;5.62;58.26;103370.38;4803106;29;114280;-70
2023/02/14 02:44:10;;;;;;;16.95;9.45;;;;;;;5.58;58.32;103367.69;4824211;29;124385;-70
2023/02/14 02:46:50;;;;;;;18.17;9.82;;;;;;;5.54;58.37;103361.50;4819095;29;122032;-70
2023/02/14 02:55:21;;;;;;;17.97;9.80;;;;;;;5.45;58.46;103367.47;4806186;29;124763;-70
2023/02/14 02:57:52;;;;;;;17.98;9.93;;;;;;;5.44;58.53;103359.56;4803244;29;123191;-70
2023/02/14 03:00:23;;;;;;;16.75;9.15;;;;;;;5.44;58.42;103364.81;4801483;29;115703;-71
2023/02/14 03:05:41;;;;;;;15.95;8.88;;;;;;;5.43;58.47;103368.31;4806268;29;124721;-70
2023/02/14 03:08:08;;;;;;;18.17;10.02;;;;;;;5.43;58.35;103373.56;4807362;29;123812;-75
2023/02/14 03:10:38;;;;;;;20.05;10.18;;;;;;;5.44;58.56;103367.44;4816468;29;112396;-70
2023/02/14 03:13:40;;;;;;;15.27;9.40;;;;;;;5.47;58.51;103375.38;4805819;29;114083;-70
2023/02/14 03:16:24;;;;;;;15.68;8.88;;;;;;;5.49;58.81;103378.94;4784981;29;124048;-70
2023/02/14 03:22:06;;;;;;;18.70;8.93;;;;;;;5.50;58.48;103374.53;4819548;29;113168;-70
2023/02/14 03:24:54;;;;;;;20.73;9.70;;;;;;;5.50;58.56;103380.72;4806196;29;113086;-70
2023/02/14 03:27:30;;;;;;;18.35;9.23;;;;;;;5.51;58.76;103382.47;4820415;29;124167;-70
2023/02/14 03:30:15;;;;;;;16.30;9.90;;;;;;;5.53;58.64;103386.00;4820066;29;122853;-70
2023/02/14 03:32:51;;;;;;;15.93;9.23;;;;;;;5.54;58.87;103372.00;4817608;29;113555;-70
2023/02/14 03:35:33;;;;;;;19.23;9.65;;;;;;;5.56;58.80;103374.69;4819298;29;113523;-70
2023/02/14 03:38:06;;;;;;;18.67;9.52;;;;;;;5.57;58.96;103377.31;4807490;29;124020;-70
2023/02/14 03:40:48;;;;;;;16.80;9.38;;;;;;;5.59;59.03;103375.59;4802877;29;123511;-70
2023/02/14 03:43:21;;;;;;;16.92;9.73;;;;;;;5.62;58.81;103374.75;4808033;29;119155;-70
2023/02/14 03:45:53;;;;;;;17.23;10.25;;;;;;;5.61;59.22;103373.91;4820553;29;118142;-70
2023/02/14 03:48:23;;;;;;;17.10;9.98;;;;;;;5.63;59.07;103369.53;4807530;29;123571;-70
2023/02/14 03:50:52;;;;;;;18.70;9.90;;;;;;;5.65;59.00;103365.19;4814519;29;124500;-70
2023/02/14 03:53:25;;;;;;;17.58;9.85;;;;;;;5.65;59.03;103370.44;4801414;29;120586;-70
2023/02/14 03:56:07;;;;;;;20.77;11.13;;;;;;;5.65;59.05;103365.19;4800332;29;119841;-70
2023/02/14 03:58:38;;;;;;;19.02;9.90;;;;;;;5.66;59.10;103366.94;4800869;29;124267;-70
2023/02/14 04:01:25;;;;;;;20.23;9.98;;;;;;;5.66;59.17;103359.06;4800850;29;124339;-70
2023/02/14 04:03:56;;;;;;;16.92;9.75;;;;;;;5.65;59.08;103367.81;4801218;29;119951;-70
2023/02/14 04:06:23;;;;;;;17.10;9.93;;;;;;;5.65;58.82;103365.19;4803771;29;120034;-70
2023/02/14 04:08:50;;;;;;;19.23;10.52;;;;;;;5.67;59.09;103373.09;4799593;29;124326;-71
2023/02/14 04:11:18;;;;;;;17.20;9.90;;;;;;;5.66;59.37;103372.19;4804036;29;125274;-69
2023/02/14 04:13:45;;;;;;;18.73;10.23;;;;;;;5.65;59.07;103369.53;4820260;29;117811;-67
2023/02/14 04:16:12;;;;;;;20.13;10.57;;;;;;;5.64;59.12;103368.66;4800142;29;119054;-67
2023/02/14 04:21:25;;;;;;;20.73;10.25;;;;;;;5.61;59.19;103368.63;4800356;29;123900;-68
2023/02/14 04:23:52;;;;;;;15.55;9.80;;;;;;;5.60;59.06;103369.47;4813499;29;117649;-68
2023/02/14 04:26:20;;;;;;;17.38;10.27;;;;;;;5.58;59.01;103379.09;4811113;29;118992;-68
2023/02/14 04:28:47;;;;;;;17.75;9.10;;;;;;;5.57;59.18;103377.31;4798353;29;124481;-68
2023/02/14 04:31:14;;;;;;;18.98;9.25;;;;;;;5.55;59.13;103373.75;4817945;29;124875;-68
2023/02/14 04:33:43;;;;;;;17.10;10.13;;;;;;;5.53;59.24;103378.13;4816691;29;119906;-68
2023/02/14 04:36:11;;;;;;;15.80;8.88;;;;;;;5.52;59.26;103376.38;4800804;29;119054;-68
2023/02/14 04:38:38;;;;;;;17.60;9.30;;;;;;;5.49;59.31;103378.94;4800250;29;124125;-68
2023/02/14 04:41:05;;;;;;;13.45;8.45;;;;;;;5.44;59.22;103376.22;4811070;29;124643;-68
2023/02/14 04:43:32;;;;;;;16.33;8.80;;;;;;;5.40;59.05;103378.75;4815141;29;119893;-68
2023/02/14 04:45:59;;;;;;;15.85;8.77;;;;;;;5.35;58.99;103375.16;4799564;29;119958;-68
2023/02/14 04:48:27;;;;;;;15.40;8.98;;;;;;;5.28;59.17;103368.06;4802658;29;124778;-68
2023/02/14 04:50:54;;;;;;;15.95;9.05;;;;;;;5.22;59.15;103369.72;4813878;29;123694;-68
2023/02/14 04:53:21;;;;;;;15.07;8.00;;;;;;;5.19;59.14;103361.75;4815976;29;119672;-68
2023/02/14 04:55:49;;;;;;;15.05;8.00;;;;;;;5.15;59.01;103359.94;4811965;29;118622;-67
2023/02/14 04:58:16;;;;;;;15.30;8.27;;;;;;;5.10;59.09;103358.97;4800653;29;124059;-67
2023/02/14 05:00:44;;;;;;;15.63;8.18;;;;;;;5.05;59.06;103355.38;4806484;29;123707;-68
2023/02/14 05:03:11;;;;;;;14.63;8.50;;;;;;;5.04;59.08;103353.59;4797149;29;120060;-69
2023/02/14 05:05:39;;;;;;;16.08;7.60;;;;;;;5.03;59.04;103352.72;4815094;29;117912;-69
2023/02/14 05:08:06;;;;;;;13.23;7.25;;;;;;;5.02;59.10;103355.31;4801694;29;124120;-69
2023/02/14 05:10:34;;;;;;;15.38;7.78;;;;;;;4.99;59.13;103350.00;4816204;29;123516;-68
2023/02/14 05:13:01;;;;;;;15.45;7.40;;;;;;;4.97;59.12;103346.47;4804352;29;118770;-68
2023/02/14 05:15:28;;;;;;;14.05;7.57;;;;;;;4.95;58.92;103345.56;4802053;29;119244;-69
2023/02/14 05:18:00;;;;;;;12.50;7.40;;;;;;;4.94;59.17;103343.78;4809811;29;124103;-69
2023/02/14 05:20:28;;;;;;;13.40;7.13;;;;;;;4.92;59.03;103345.50;4814874;29;123798;-69
2023/02/14 05:22:55;;;;;;;14.50;7.78;;;;;;;4.90;59.24;103339.31;4813604;29;118758;-69
2023/02/14 05:25:23;;;;;;;16.77;7.80;;;;;;;4.90;59.23;103344.56;4797432;29;119223;-69
2023/02/14 05:27:50;;;;;;;14.30;7.75;;;;;;;4.88;59.03;103337.56;4800701;29;124579;-69
2023/02/14 05:30:17;;;;;;;14.43;7.57;;;;;;;4.89;59.31;103341.06;4811630;29;124643;-70
2023/02/14 05:32:44;;;;;;;17.30;8.05;;;;;;;4.87;58.88;103343.66;4801619;29;120579;-69
2023/02/14 05:35:11;;;;;;;14.75;8.27;;;;;;;4.86;59.40;103344.53;4796124;29;120605;-69
2023/02/14 05:37:39;;;;;;;15.27;8.02;;;;;;;4.86;59.33;103349.78;4798376;29;124892;-69
2023/02/14 05:40:07;;;;;;;16.33;8.57;;;;;;;4.85;59.26;103342.75;4800790;29;124293;-69
2023/02/14 05:42:34;;;;;;;15.23;8.00;;;;;;;4.85;59.38;103342.75;4803350;29;119377;-69
2023/02/14 05:45:01;;;;;;;17.85;8.15;;;;;;;4.85;59.35;103342.75;4802323;29;119426;-69
2023/02/14 05:47:28;;;;;;;17.50;8.38;;;;;;;4.86;59.20;103344.53;4797306;29;124068;-69
2023/02/14 05:49:56;;;;;;;14.70;7.75;;;;;;;4.86;59.13;103349.78;4816654;29;124030;-69
2023/02/14 05:52:23;;;;;;;13.75;7.63;;;;;;;4.85;59.31;103342.75;4797786;29;119473;-69
2023/02/14 05:54:50;;;;;;;18.10;8.05;;;;;;;4.86;59.38;103338.41;4805411;29;119167;-68
2023/02/14 05:57:17;;;;;;;19.48;7.20;;;;;;;4.86;59.26;103339.28;4804497;29;123896;-68
2023/02/14 05:59:45;;;;;;;13.77;7.63;;;;;;;4.85;59.42;103341.88;4799720;29;124441;-69
2023/02/14 06:02:13;;;;;;;14.65;7.68;;;;;;;4.84;59.21;103342.72;4804515;29;120093;-69
2023/02/14 06:04:40;;;;;;;13.68;7.15;;;;;;;4.82;59.19;103347.06;4800945;29;119385;-69
2023/02/14 06:07:08;;;;;;;14.82;7.70;;;;;;;4.81;59.24;103348.81;4814999;29;122998;-69
2023/02/14 06:09:35;;;;;;;12.98;7.53;;;;;;;4.82;59.10;103347.06;4813380;29;122992;-69
2023/02/14 06:12:03;;;;;;;13.15;7.22;;;;;;;4.81;59.32;103351.44;4811148;29;119126;-69
2023/02/14 06:14:30;;;;;;;13.63;7.40;;;;;;;4.80;59.40;103354.94;4797889;29;119882;-70
2023/02/14 06:16:57;;;;;;;13.60;7.50;;;;;;;4.82;59.16;103352.31;4812239;29;122799;-71
2023/02/14 06:19:24;;;;;;;13.18;7.88;;;;;;;4.82;59.20;103347.97;4801638;29;123802;-70
2023/02/14 06:21:51;;;;;;;16.40;8.25;;;;;;;4.82;59.40;103347.97;4801575;29;120122;-69
2023/02/14 06:24:19;;;;;;;15.05;8.27;;;;;;;4.83;59.31;103347.09;4826835;29;119003;-69
2023/02/14 06:26:46;;;;;;;15.40;7.97;;;;;;;4.84;59.30;103346.25;4812489;29;123902;-69
2023/02/14 06:29:15;;;;;;;14.27;8.20;;;;;;;4.83;59.54;103354.97;4813786;29;124483;-70
2023/02/14 06:31:42;;;;;;;14.73;8.20;;;;;;;4.82;59.10;103347.97;4814102;29;119610;-69
2023/02/14 06:34:10;;;;;;;15.05;8.27;;;;;;;4.82;59.13;103353.22;4799789;29;117854;-69
2023/02/14 06:36:38;;;;;;;12.70;7.45;;;;;;;4.82;59.45;103353.22;4815535;29;124717;-69
2023/02/14 06:39:05;;;;;;;16.85;7.97;;;;;;;4.81;59.27;103361.94;4813236;29;124596;-69
2023/02/14 06:41:32;;;;;;;16.02;8.07;;;;;;;4.80;59.48;103352.31;4813040;29;119219;-70
2023/02/14 06:44:00;;;;;;;15.35;7.72;;;;;;;4.80;59.17;103349.69;4812482;29;120497;-71
2023/02/14 06:46:27;;;;;;;17.20;8.25;;;;;;;4.79;59.34;103358.38;4811089;29;124686;-69
2023/02/14 06:48:54;;;;;;;13.60;7.13;;;;;;;4.78;59.41;103356.59;4812378;29;124730;-69
2023/02/14 06:51:21;;;;;;;14.82;7.43;;;;;;;4.78;59.24;103361.84;4812746;29;119416;-69
2023/02/14 06:53:49;;;;;;;14.65;7.35;;;;;;;4.76;59.16;103363.56;4813144;29;119360;-69
2023/02/14 06:56:16;;;;;;;12.55;6.90;;;;;;;4.75;59.03;103361.81;4826827;29;124111;-69
2023/02/14 06:58:43;;;;;;;12.82;7.35;;;;;;;4.74;58.96;103372.28;4814942;29;124478;-69
2023/02/14 07:01:10;;;;;;;17.92;7.35;;;;;;;4.71;59.06;103365.25;4812931;29;120004;-68
2023/02/14 07:03:38;;;;;;;12.50;6.93;;;;;;;4.69;59.01;103366.94;4814719;29;118088;-68
2023/02/14 07:06:05;;;;;;;13.27;7.55;;;;;;;4.68;59.24;103366.03;4811241;29;123953;-68
2023/02/14 07:08:32;;;;;;;14.80;7.85;;;;;;;4.66;59.15;103366.88;4812908;29;123831;-69
2023/02/14 07:10:59;;;;;;;17.05;8.23;;;;;;;4.64;59.38;103368.59;4811988;29;120614;-69
2023/02/14 07:13:27;;;;;;;16.27;7.70;;;;;;;4.63;59.05;103377.31;4813301;29;120803;-69
2023/02/14 07:15:54;;;;;;;15.70;6.55;;;;;;;4.62;59.06;103376.44;4812155;29;124200;-70
2023/02/14 07:18:22;;;;;;;12.45;6.47;;;;;;;4.61;59.13;103373.75;4813551;29;123981;-70
2023/02/14 07:20:50;;;;;;;11.63;6.32;;;;;;;4.60;59.16;103377.25;4799273;29;118524;-70
2023/02/14 07:23:17;;;;;;;12.35;6.60;;;;;;;4.61;59.24;103373.75;4814269;29;119730;-70
2023/02/14 07:25:45;;;;;;;14.63;6.88;;;;;;;4.60;59.29;103372.00;4794700;29;124117;-70
2023/02/14 07:28:12;;;;;;;10.73;5.88;;;;;;;4.61;59.36;103379.00;4811901;29;124614;-70
2023/02/14 07:30:40;;;;;;;15.88;6.80;;;;;;;4.61;59.15;103379.00;4814822;29;119369;-69
2023/02/14 07:33:07;;;;;;;12.13;6.82;;;;;;;4.61;59.06;103384.25;4817847;29;119134;-70
2023/02/14 07:35:35;;;;;;;13.25;6.80;;;;;;;4.59;59.12;103380.72;4814223;29;124935;-69
2023/02/14 07:38:02;;;;;;;11.63;6.15;;;;;;;4.60;59.23;103386.00;4814706;29;124188;-70
2023/02/14 07:40:29;;;;;;;14.90;7.10;;;;;;;4.61;59.30;103384.25;4815164;29;119834;-70
2023/02/14 07:42:58;;;;;;;11.57;6.30;;;;;;;4.62;59.01;103384.31;4811199;29;118145;-69
2023/02/14 07:45:25;;;;;;;14.02;6.80;;;;;;;4.63;59.32;103379.94;4812588;29;124053;-70
2023/02/14 07:47:54;;;;;;;14.35;6.60;;;;;;;4.65;59.39;103380.84;4817120;29;124514;-70
2023/02/14 07:50:22;;;;;;;14.88;6.90;;;;;;;4.66;59.13;103382.63;4815248;29;119353;-70
2023/02/14 07:52:49;;;;;;;18.27;8.02;;;;;;;4.66;59.20;103382.63;4829327;29;119063;-70
2023/02/14 07:55:18;;;;;;;22.30;8.27;;;;;;;4.70;59.28;103383.59;4814815;29;124484;-70
2023/02/14 07:57:48;;;;;;;28.42;10.00;;;;;;;4.73;59.47;103383.63;4816113;29;123011;-71
2023/02/14 08:00:16;;;;;;;25.63;9.27;;;;;;;4.77;59.32;103386.34;4817793;29;120708;-70
2023/02/14 08:02:44;;;;;;;20.25;8.85;;;;;;;4.78;59.22;103388.13;4817089;29;120220;-71
2023/02/14 08:05:11;;;;;;;18.85;9.55;;;;;;;4.81;59.54;103387.31;4801860;29;123175;-72
2023/02/14 08:07:38;;;;;;;17.95;8.95;;;;;;;4.84;59.30;103383.00;4809996;29;124283;-71
2023/02/14 08:10:06;;;;;;;15.45;8.52;;;;;;;4.87;59.62;103377.78;4805318;29;119428;-77
2023/02/14 08:18:05;;;;;;;16.48;7.72;;;;;;;4.97;59.16;103370.09;4814060;29;124181;-71
2023/02/14 08:20:32;;;;;;;16.70;8.35;;;;;;;4.99;59.71;103376.25;4815516;29;119466;-71
2023/02/14 08:22:59;;;;;;;19.70;9.38;;;;;;;5.00;59.43;103372.78;4822358;29;118372;-72
2023/02/14 08:25:26;;;;;;;21.23;9.05;;;;;;;5.03;59.79;103373.75;4811539;29;124186;-72
2023/02/14 08:27:56;;;;;;;21.40;9.73;;;;;;;5.07;59.80;103370.31;4808186;29;124517;-75
2023/02/14 08:30:24;;;;;;;21.92;10.20;;;;;;;5.12;59.55;103367.75;4816609;29;119798;-72
2023/02/14 08:32:52;;;;;;;18.35;9.63;;;;;;;5.18;59.97;103373.16;4817978;29;118600;-72
2023/02/14 08:35:19;;;;;;;20.27;9.48;;;;;;;5.24;60.05;103373.25;4806194;29;124278;-72
2023/02/14 08:37:47;;;;;;;20.58;9.98;;;;;;;5.33;60.04;103376.88;4801316;29;123911;-72
2023/02/14 08:40:14;;;;;;;22.83;10.27;;;;;;;5.39;59.90;103377.00;4815991;29;119287;-71
2023/02/14 08:42:43;;;;;;;22.05;10.55;;;;;;;5.47;59.80;103371.00;4817220;29;119099;-72
2023/02/14 08:45:10;;;;;;;23.83;11.55;;;;;;;5.57;59.87;103361.53;4816905;29;124092;-72
2023/02/14 08:47:39;;;;;;;24.20;11.27;;;;;;;5.66;60.17;103360.81;4816011;29;122937;-71
2023/02/14 08:50:09;;;;;;;24.40;11.98;;;;;;;5.75;60.01;103366.22;4800429;29;120397;-72
2023/02/14 08:52:39;;;;;;;25.70;11.70;;;;;;;5.85;60.15;103369.88;4817237;29;120185;-72
2023/02/14 08:55:06;;;;;;;25.90;11.35;;;;;;;5.94;60.38;103363.88;4818513;29;124241;-71
2023/02/14 08:57:34;;;;;;;22.08;11.07;;;;;;;6.04;60.48;103371.94;4807813;29;124674;-72
2023/02/14 09:00:03;;;;;;;24.15;12.00;;;;;;;6.15;60.39;103368.59;4824867;29;118925;-72
2023/02/14 09:02:30;;;;;;;24.75;12.77;;;;;;;6.28;60.46;103362.63;4807272;29;119426;-72
2023/02/14 09:04:58;;;;;;;25.13;13.00;;;;;;;6.39;60.39;103366.28;4803984;29;126851;-74
2023/02/14 09:07:25;;;;;;;26.90;13.45;;;;;;;6.54;60.45;103359.47;4805282;29;125423;-72
2023/02/14 09:09:52;;;;;;;24.95;11.93;;;;;;;6.67;60.64;103353.47;4811062;29;118647;-73
2023/02/14 09:12:19;;;;;;;28.02;12.95;;;;;;;6.79;60.37;103353.59;4803921;29;119417;-72
2023/02/14 09:14:46;;;;;;;25.45;12.35;;;;;;;6.92;60.53;103348.50;4808470;29;124109;-73
2023/02/14 09:17:15;;;;;;;22.70;12.30;;;;;;;7.05;60.54;103358.28;4805768;29;123910;-73
2023/02/14 09:19:42;;;;;;;26.90;12.75;;;;;;;7.20;60.57;103353.16;4808939;29;119624;-73
2023/02/14 09:22:10;;;;;;;28.60;13.13;;;;;;;7.34;60.91;103349.75;4811668;29;118895;-73
2023/02/14 09:24:38;;;;;;;27.27;13.13;;;;;;;7.49;60.88;103347.25;4806727;29;124049;-72
2023/02/14 09:27:06;;;;;;;31.08;13.82;;;;;;;7.64;61.13;103348.25;4816857;29;122670;-73
2023/02/14 09:29:34;;;;;;;27.35;13.35;;;;;;;7.77;60.84;103344.84;4820532;29;119665;-73
2023/02/14 09:32:03;;;;;;;30.10;12.88;;;;;;;7.90;60.84;103341.41;4823565;29;118047;-72
2023/02/14 09:34:33;;;;;;;31.42;14.35;;;;;;;8.03;60.84;103341.50;4811494;29;124029;-73
2023/02/14 09:37:00;;;;;;;28.00;13.38;;;;;;;8.16;60.77;103338.03;4818454;29;124820;-72
2023/02/14 09:39:27;;;;;;;31.58;14.00;;;;;;;8.30;60.70;103341.63;4813626;29;120614;-73
2023/02/14 09:41:54;;;;;;;28.85;13.38;;;;;;;8.44;61.04;103348.75;4815645;29;120450;-73
2023/02/14 09:44:41;;;;;;;29.45;13.57;;;;;;;8.57;60.55;103351.47;4830523;29;123868;-73
2023/02/14 09:47:43;;;;;;;28.73;13.52;;;;;;;8.71;60.63;103338.28;4808182;29;123926;-74
2023/02/14 09:50:29;;;;;;;27.15;12.90;;;;;;;8.86;60.92;103349.78;4813692;29;119520;-73
2023/02/14 09:53:01;;;;;;;25.13;13.05;;;;;;;8.99;60.56;103346.28;4823847;29;117891;-73
2023/02/14 09:55:39;;;;;;;26.02;12.88;;;;;;;9.10;60.61;103336.63;4822444;29;123962;-73
2023/02/14 09:58:14;;;;;;;29.13;13.48;;;;;;;9.23;60.50;103331.34;4829520;29;122795;-73
2023/02/14 10:00:46;;;;;;;27.45;13.05;;;;;;;9.37;60.72;103329.59;4813673;29;118885;-73
2023/02/14 10:03:37;;;;;;;25.08;13.13;;;;;;;9.50;60.52;103326.06;4838369;29;118947;-73
2023/02/14 10:06:32;;;;;;;24.20;12.68;;;;;;;9.65;60.38;103319.00;4806183;29;124025;-73
2023/02/14 10:09:06;;;;;;;26.55;12.38;;;;;;;9.77;60.24;103324.25;4827495;29;124070;-73
2023/02/14 10:11:34;;;;;;;27.52;12.65;;;;;;;9.89;60.08;103324.25;4814635;29;120205;-74
2023/02/14 10:14:14;;;;;;;25.33;13.18;;;;;;;10.02;60.35;103324.19;4811984;29;119538;-73
2023/02/14 10:17:03;;;;;;;28.83;13.50;;;;;;;10.15;60.28;103320.63;4811160;29;124617;-73
2023/02/14 10:19:38;;;;;;;23.52;11.90;;;;;;;10.27;60.18;103320.59;4806758;29;124271;-73
2023/02/14 10:22:12;;;;;;;26.80;13.15;;;;;;;10.38;59.95;103301.16;4824408;29;119265;-73
2023/02/14 10:24:52;;;;;;;27.42;13.05;;;;;;;10.49;59.92;103315.22;4833297;29;119161;-73
2023/02/14 10:27:28;;;;;;;24.17;13.45;;;;;;;10.58;59.85;103309.88;4819614;29;124313;-73
2023/02/14 10:29:56;;;;;;;22.80;12.18;;;;;;;10.70;59.96;103315.13;4822013;29;123761;-73
2023/02/14 10:32:28;;;;;;;24.27;13.10;;;;;;;10.84;59.74;103316.81;4818904;29;120558;-73
2023/02/14 10:34:59;;;;;;;22.88;11.52;;;;;;;10.95;59.90;103314.97;4820782;29;121016;-73
2023/02/14 10:37:47;;;;;;;25.33;11.73;;;;;;;11.08;59.61;103313.97;4825730;29;124557;-73
2023/02/14 10:40:27;;;;;;;23.95;12.20;;;;;;;11.20;59.49;103309.47;4829992;29;122847;-73
2023/02/14 10:43:16;;;;;;;27.98;12.40;;;;;;;11.33;59.31;103316.44;4815673;29;119495;-73
2023/02/14 10:46:08;;;;;;;20.83;11.70;;;;;;;11.43;59.35;103312.84;4816225;29;117939;-73
2023/02/14 10:48:49;;;;;;;25.35;12.35;;;;;;;11.55;59.20;103306.53;4826818;29;124188;-73
2023/02/14 10:51:23;;;;;;;23.58;11.63;;;;;;;11.65;59.04;103307.31;4812277;29;124072;-73
2023/02/14 10:54:20;;;;;;;21.13;11.67;;;;;;;11.74;58.88;103301.91;4814262;29;118251;-73
2023/02/14 10:57:03;;;;;;;27.17;12.73;;;;;;;11.85;58.70;103300.03;4801196;29;119326;-73
2023/02/14 10:59:38;;;;;;;24.52;12.15;;;;;;;11.97;58.85;103292.84;4803129;29;124017;-73
2023/02/14 11:02:10;;;;;;;22.13;11.68;;;;;;;12.08;58.90;103290.94;4811650;29;124169;-75
2023/02/14 11:04:39;;;;;;;20.65;11.02;;;;;;;12.18;58.65;103292.56;4804100;29;119316;-73
2023/02/14 11:07:17;;;;;;;23.55;11.88;;;;;;;12.31;58.60;103289.78;4811571;29;118666;-73
2023/02/14 11:09:44;;;;;;;23.40;11.70;;;;;;;12.45;58.63;103290.47;4821665;29;123166;-71
2023/02/14 11:12:30;;;;;;;20.38;11.55;;;;;;;12.54;58.36;103285.00;4809173;29;124709;-73
2023/02/14 11:15:12;;;;;;;24.95;11.43;;;;;;;12.64;58.24;103286.66;4820361;29;119327;-72
2023/02/14 11:17:41;;;;;;;21.42;11.48;;;;;;;12.74;57.94;103286.53;4814924;29;120539;-73
2023/02/14 11:20:18;;;;;;;24.83;12.00;;;;;;;12.82;57.94;103279.31;4807014;29;124256;-73
2023/02/14 11:22:46;;;;;;;21.90;11.82;;;;;;;12.91;57.89;103273.84;4809078;29;123681;-72
2023/02/14 11:25:30;;;;;;;26.98;11.80;;;;;;;12.99;57.58;103271.06;4811179;29;120191;-73
2023/02/14 11:28:06;;;;;;;21.13;11.90;;;;;;;13.08;57.58;103270.03;4827994;29;120264;-72
2023/02/14 11:30:44;;;;;;;21.90;11.70;;;;;;;13.18;57.55;103255.66;4811960;29;124183;-72
2023/02/14 11:33:42;;;;;;;23.52;12.68;;;;;;;13.29;57.51;103259.00;4819590;29;122821;-72
2023/02/14 11:36:15;;;;;;;23.45;11.75;;;;;;;13.41;57.41;103256.19;4806750;29;119747;-72
2023/02/14 11:38:44;;;;;;;22.00;11.95;;;;;;;13.53;57.30;103268.38;4813256;29;119071;-72
2023/02/14 11:41:13;;;;;;;20.60;11.90;;;;;;;13.65;57.20;103255.75;4815083;29;123912;-72
2023/02/14 11:43:43;;;;;;;21.00;11.77;;;;;;;13.76;56.92;103249.28;4818210;29;124056;-72
2023/02/14 11:46:19;;;;;;;22.00;11.45;;;;;;;13.86;56.79;103249.97;4815448;29;119234;-73
2023/02/14 11:48:55;;;;;;;20.58;11.40;;;;;;;13.97;56.81;103252.44;4827536;29;119407;-72
2023/02/14 11:51:26;;;;;;;;;;;;;;;14.08;56.85;103245.09;4820442;29;124270;-72
2023/02/14 11:53:59;;;;;;;19.58;10.98;;;;;;;14.18;56.54;103241.34;4820402;29;124678;-72
2023/02/14 11:56:48;;;;;;;19.35;10.82;;;;;;;14.27;56.28;103234.03;4811811;29;119911;-72